sensor_id;sensor_type;location;lat;lon;timestamp;pressure;altitude;pressure_sealevel;temperature;humidity
11349;BME280;5729;43.570;27.826;2022-12-13T00:01:17;98498.53;;;3.68;100.00
11349;BME280;5729;43.570;27.826;2022-12-13T00:03:42;98505.75;;;3.67;100.00
11349;BME280;5729;43.570;27.826;2022-12-13T00:06:09;98504.97;;;3.67;100.00
11349;BME280;5729;43.570;27.826;2022-12-13T00:08:36;98496.97;;;3.67;100.00
11349;BME280;5729;43.570;27.826;2022-12-13T00:11:04;98525.63;;;3.70;100.00
11349;BME280;5729;43.570;27.826;2022-12-13T00:13:31;98526.03;;;3.59;100.00
11349;BME280;5729;43.570;27.826;2022-12-13T00:16:01;98510.47;;;3.61;100.00
11349;BME280;5729;43.570;27.826;2022-12-13T00:18:28;98512.44;;;3.73;100.00
11349;BME280;5729;43.570;27.826;2022-12-13T00:20:54;98520.38;;;3.82;100.00
11349;BME280;5729;43.570;27.826;2022-12-13T00:23:20;98520.09;;;3.75;100.00
11349;BME280;5729;43.570;27.826;2022-12-13T00:25:46;98519.47;;;3.78;100.00
11349;BME280;5729;43.570;27.826;2022-12-13T00:28:12;98520.31;;;3.90;100.00
11349;BME280;5729;43.570;27.826;2022-12-13T00:30:38;98528.41;;;3.73;100.00
11349;BME280;5729;43.570;27.826;2022-12-13T00:33:04;98535.19;;;3.71;100.00
11349;BME280;5729;43.570;27.826;2022-12-13T00:35:31;98531.69;;;3.79;100.00
11349;BME280;5729;43.570;27.826;2022-12-13T00:37:57;98528.16;;;3.87;100.00
11349;BME280;5729;43.570;27.826;2022-12-13T00:40:22;98520.31;;;3.90;100.00
11349;BME280;5729;43.570;27.826;2022-12-13T00:42:47;98515.16;;;3.85;100.00
11349;BME280;5729;43.570;27.826;2022-12-13T00:45:13;98499.63;;;3.67;100.00
11349;BME280;5729;43.570;27.826;2022-12-13T00:47:39;98515.47;;;3.84;100.00
11349;BME280;5729;43.570;27.826;2022-12-13T00:50:05;98523.53;;;3.96;100.00
11349;BME280;5729;43.570;27.826;2022-12-13T00:52:32;98515.75;;;3.91;100.00
11349;BME280;5729;43.570;27.826;2022-12-13T00:54:58;98529.41;;;4.10;100.00
11349;BME280;5729;43.570;27.826;2022-12-13T00:57:23;98502.28;;;4.08;100.00
11349;BME280;5729;43.570;27.826;2022-12-13T00:59:49;98520.91;;;4.29;100.00
11349;BME280;5729;43.570;27.826;2022-12-13T01:02:15;98511.06;;;4.42;100.00
11349;BME280;5729;43.570;27.826;2022-12-13T01:04:40;98515.34;;;4.22;100.00
11349;BME280;5729;43.570;27.826;2022-12-13T01:07:06;98490.22;;;4.23;100.00
11349;BME280;5729;43.570;27.826;2022-12-13T01:09:32;98505.81;;;4.33;100.00
11349;BME280;5729;43.570;27.826;2022-12-13T01:12:03;98513.41;;;4.10;100.00
11349;BME280;5729;43.570;27.826;2022-12-13T01:14:30;98513.69;;;4.29;100.00
11349;BME280;5729;43.570;27.826;2022-12-13T01:16:56;98495.94;;;4.33;100.00
11349;BME280;5729;43.570;27.826;2022-12-13T01:19:26;98502.00;;;4.55;100.00
11349;BME280;5729;43.570;27.826;2022-12-13T01:21:57;98497.84;;;4.45;100.00
11349;BME280;5729;43.570;27.826;2022-12-13T01:24:23;98496.72;;;4.34;100.00
11349;BME280;5729;43.570;27.826;2022-12-13T01:26:50;98504.72;;;4.34;100.00
11349;BME280;5729;43.570;27.826;2022-12-13T01:29:17;98491.97;;;4.19;100.00
11349;BME280;5729;43.570;27.826;2022-12-13T01:31:42;98489.03;;;4.32;100.00
11349;BME280;5729;43.570;27.826;2022-12-13T01:34:10;98490.69;;;4.25;100.00
11349;BME280;5729;43.570;27.826;2022-12-13T01:36:36;98491.94;;;4.07;100.00
11349;BME280;5729;43.570;27.826;2022-12-13T01:39:01;98512.28;;;4.11;100.00
11349;BME280;5729;43.570;27.826;2022-12-13T01:41:28;98507.03;;;4.03;100.00
11349;BME280;5729;43.570;27.826;2022-12-13T01:44:05;98492.50;;;3.79;100.00
11349;BME280;5729;43.570;27.826;2022-12-13T01:46:33;98510.03;;;3.59;100.00
11349;BME280;5729;43.570;27.826;2022-12-13T01:49:14;98505.25;;;3.44;100.00
11349;BME280;5729;43.570;27.826;2022-12-13T01:52:02;98499.75;;;3.20;100.00
11349;BME280;5729;43.570;27.826;2022-12-13T01:54:33;98504.59;;;3.26;100.00
11349;BME280;5729;43.570;27.826;2022-12-13T01:57:04;98521.09;;;3.11;100.00
11349;BME280;5729;43.570;27.826;2022-12-13T01:59:32;98509.56;;;2.99;100.00
11349;BME280;5729;43.570;27.826;2022-12-13T02:01:58;98508.84;;;2.89;100.00
11349;BME280;5729;43.570;27.826;2022-12-13T02:05:09;98520.59;;;2.80;100.00
11349;BME280;5729;43.570;27.826;2022-12-13T02:07:37;98524.19;;;2.84;100.00
11349;BME280;5729;43.570;27.826;2022-12-13T02:10:05;98521.03;;;2.90;100.00
11349;BME280;5729;43.570;27.826;2022-12-13T02:12:32;98524.81;;;2.89;100.00
11349;BME280;5729;43.570;27.826;2022-12-13T02:15:02;98501.00;;;2.84;100.00
11349;BME280;5729;43.570;27.826;2022-12-13T02:17:50;98498.38;;;2.76;100.00
11349;BME280;5729;43.570;27.826;2022-12-13T02:20:54;98502.50;;;2.65;100.00
11349;BME280;5729;43.570;27.826;2022-12-13T02:31:31;98526.56;;;2.77;100.00
11349;BME280;5729;43.570;27.826;2022-12-13T02:34:08;98532.66;;;2.77;100.00
11349;BME280;5729;43.570;27.826;2022-12-13T02:36:51;98522.13;;;2.89;100.00
11349;BME280;5729;43.570;27.826;2022-12-13T02:39:22;98515.06;;;2.93;100.00
11349;BME280;5729;43.570;27.826;2022-12-13T02:41:52;98508.47;;;3.00;100.00
11349;BME280;5729;43.570;27.826;2022-12-13T02:44:38;98504.25;;;2.99;100.00
11349;BME280;5729;43.570;27.826;2022-12-13T02:47:14;98504.75;;;2.92;100.00
11349;BME280;5729;43.570;27.826;2022-12-13T02:49:47;98522.88;;;2.99;100.00
11349;BME280;5729;43.570;27.826;2022-12-13T02:52:15;98519.13;;;3.00;100.00
11349;BME280;5729;43.570;27.826;2022-12-13T02:54:41;98541.63;;;3.11;100.00
11349;BME280;5729;43.570;27.826;2022-12-13T02:57:36;98543.13;;;2.91;100.00
11349;BME280;5729;43.570;27.826;2022-12-13T03:00:09;98530.56;;;3.00;100.00
11349;BME280;5729;43.570;27.826;2022-12-13T03:05:46;98546.78;;;3.07;100.00
11349;BME280;5729;43.570;27.826;2022-12-13T03:11:21;98546.06;;;2.98;100.00
11349;BME280;5729;43.570;27.826;2022-12-13T03:16:20;98533.88;;;2.88;100.00
11349;BME280;5729;43.570;27.826;2022-12-13T03:18:47;98544.81;;;2.96;100.00
11349;BME280;5729;43.570;27.826;2022-12-13T03:21:13;98550.00;;;2.83;100.00
11349;BME280;5729;43.570;27.826;2022-12-13T03:23:39;98544.09;;;2.78;100.00
11349;BME280;5729;43.570;27.826;2022-12-13T03:28:33;98552.72;;;2.66;100.00
11349;BME280;5729;43.570;27.826;2022-12-13T03:30:58;98551.97;;;2.57;100.00
11349;BME280;5729;43.570;27.826;2022-12-13T03:33:24;98558.06;;;2.66;100.00
11349;BME280;5729;43.570;27.826;2022-12-13T03:35:49;98562.75;;;2.61;100.00
11349;BME280;5729;43.570;27.826;2022-12-13T03:38:16;98564.66;;;2.43;100.00
11349;BME280;5729;43.570;27.826;2022-12-13T03:40:42;98569.22;;;2.34;100.00
11349;BME280;5729;43.570;27.826;2022-12-13T03:43:08;98577.81;;;2.31;100.00
11349;BME280;5729;43.570;27.826;2022-12-13T03:45:33;98578.44;;;2.10;100.00
11349;BME280;5729;43.570;27.826;2022-12-13T03:47:59;98580.78;;;2.12;100.00
11349;BME280;5729;43.570;27.826;2022-12-13T03:50:24;98582.03;;;2.14;100.00
11349;BME280;5729;43.570;27.826;2022-12-13T03:52:49;98592.81;;;2.09;100.00
11349;BME280;5729;43.570;27.826;2022-12-13T03:55:17;98581.53;;;1.78;100.00
11349;BME280;5729;43.570;27.826;2022-12-13T03:57:43;98584.97;;;1.87;100.00
11349;BME280;5729;43.570;27.826;2022-12-13T04:00:08;98579.84;;;1.99;100.00
11349;BME280;5729;43.570;27.826;2022-12-13T04:02:34;98575.13;;;1.79;100.00
11349;BME280;5729;43.570;27.826;2022-12-13T04:04:59;98581.38;;;1.83;100.00
11349;BME280;5729;43.570;27.826;2022-12-13T04:07:25;98580.75;;;1.77;100.00
11349;BME280;5729;43.570;27.826;2022-12-13T04:09:50;98589.47;;;1.69;100.00
11349;BME280;5729;43.570;27.826;2022-12-13T04:12:16;98581.38;;;1.74;100.00
11349;BME280;5729;43.570;27.826;2022-12-13T04:14:59;98590.59;;;1.86;100.00
11349;BME280;5729;43.570;27.826;2022-12-13T04:17:25;98591.50;;;1.72;100.00
11349;BME280;5729;43.570;27.826;2022-12-13T04:19:50;98598.38;;;1.73;100.00
11349;BME280;5729;43.570;27.826;2022-12-13T04:22:16;98599.59;;;1.59;100.00
11349;BME280;5729;43.570;27.826;2022-12-13T04:24:41;98601.94;;;1.60;100.00
11349;BME280;5729;43.570;27.826;2022-12-13T04:27:07;98605.25;;;1.66;100.00
11349;BME280;5729;43.570;27.826;2022-12-13T04:29:32;98610.56;;;1.66;100.00
11349;BME280;5729;43.570;27.826;2022-12-13T04:31:57;98613.38;;;1.69;100.00
11349;BME280;5729;43.570;27.826;2022-12-13T04:34:23;98611.78;;;1.51;100.00
11349;BME280;5729;43.570;27.826;2022-12-13T04:36:48;98621.03;;;1.62;100.00
11349;BME280;5729;43.570;27.826;2022-12-13T04:39:14;98624.34;;;1.76;100.00
11349;BME280;5729;43.570;27.826;2022-12-13T04:41:39;98612.63;;;1.69;100.00
11349;BME280;5729;43.570;27.826;2022-12-13T04:44:06;98617.59;;;1.70;100.00
11349;BME280;5729;43.570;27.826;2022-12-13T04:46:32;98615.28;;;1.69;100.00
11349;BME280;5729;43.570;27.826;2022-12-13T04:48:58;98602.44;;;1.62;100.00
11349;BME280;5729;43.570;27.826;2022-12-13T04:51:23;98604.75;;;1.55;100.00
11349;BME280;5729;43.570;27.826;2022-12-13T04:53:49;98597.72;;;1.51;100.00
11349;BME280;5729;43.570;27.826;2022-12-13T04:56:15;98606.91;;;1.44;100.00
11349;BME280;5729;43.570;27.826;2022-12-13T04:58:40;98612.00;;;1.24;100.00
11349;BME280;5729;43.570;27.826;2022-12-13T05:01:07;98620.56;;;1.21;100.00
11349;BME280;5729;43.570;27.826;2022-12-13T05:03:33;98616.47;;;1.15;100.00
11349;BME280;5729;43.570;27.826;2022-12-13T05:06:06;98618.38;;;1.23;100.00
11349;BME280;5729;43.570;27.826;2022-12-13T05:08:31;98612.28;;;1.22;100.00
11349;BME280;5729;43.570;27.826;2022-12-13T05:10:57;98630.56;;;1.24;100.00
11349;BME280;5729;43.570;27.826;2022-12-13T05:13:22;98615.66;;;1.14;100.00
11349;BME280;5729;43.570;27.826;2022-12-13T05:15:56;98615.63;;;1.05;100.00
11349;BME280;5729;43.570;27.826;2022-12-13T05:18:22;98625.66;;;1.08;100.00
11349;BME280;5729;43.570;27.826;2022-12-13T05:20:47;98625.47;;;1.05;100.00
11349;BME280;5729;43.570;27.826;2022-12-13T05:23:17;98633.50;;;0.91;100.00
11349;BME280;5729;43.570;27.826;2022-12-13T05:25:42;98642.72;;;0.94;100.00
11349;BME280;5729;43.570;27.826;2022-12-13T05:28:08;98635.25;;;0.96;100.00
11349;BME280;5729;43.570;27.826;2022-12-13T05:30:33;98628.03;;;0.88;100.00
11349;BME280;5729;43.570;27.826;2022-12-13T05:32:58;98640.53;;;0.87;100.00
11349;BME280;5729;43.570;27.826;2022-12-13T05:35:24;98643.09;;;1.01;100.00
11349;BME280;5729;43.570;27.826;2022-12-13T05:37:53;98649.66;;;1.03;100.00
11349;BME280;5729;43.570;27.826;2022-12-13T05:40:18;98656.41;;;1.09;100.00
11349;BME280;5729;43.570;27.826;2022-12-13T05:42:43;98656.75;;;1.17;100.00
11349;BME280;5729;43.570;27.826;2022-12-13T05:45:09;98658.03;;;1.19;100.00
11349;BME280;5729;43.570;27.826;2022-12-13T05:47:34;98671.47;;;1.23;100.00
11349;BME280;5729;43.570;27.826;2022-12-13T05:50:00;98670.47;;;1.10;100.00
11349;BME280;5729;43.570;27.826;2022-12-13T05:52:25;98683.25;;;1.08;100.00
11349;BME280;5729;43.570;27.826;2022-12-13T05:54:54;98679.50;;;1.09;100.00
11349;BME280;5729;43.570;27.826;2022-12-13T05:57:20;98685.31;;;1.11;100.00
11349;BME280;5729;43.570;27.826;2022-12-13T05:59:46;98693.13;;;1.16;100.00
11349;BME280;5729;43.570;27.826;2022-12-13T06:02:11;98686.44;;;1.19;100.00
11349;BME280;5729;43.570;27.826;2022-12-13T06:04:37;98704.53;;;1.17;100.00
11349;BME280;5729;43.570;27.826;2022-12-13T06:07:02;98701.28;;;1.20;100.00
11349;BME280;5729;43.570;27.826;2022-12-13T06:09:28;98703.22;;;1.05;100.00
11349;BME280;5729;43.570;27.826;2022-12-13T06:11:53;98712.19;;;1.18;100.00
11349;BME280;5729;43.570;27.826;2022-12-13T06:14:19;98715.53;;;1.01;100.00
11349;BME280;5729;43.570;27.826;2022-12-13T06:16:44;98714.66;;;0.92;100.00
11349;BME280;5729;43.570;27.826;2022-12-13T06:19:09;98716.63;;;1.00;100.00
11349;BME280;5729;43.570;27.826;2022-12-13T06:21:35;98719.13;;;1.05;100.00
11349;BME280;5729;43.570;27.826;2022-12-13T06:24:00;98725.41;;;0.87;100.00
11349;BME280;5729;43.570;27.826;2022-12-13T06:26:26;98725.91;;;1.12;100.00
11349;BME280;5729;43.570;27.826;2022-12-13T06:28:51;98734.25;;;1.05;100.00
11349;BME280;5729;43.570;27.826;2022-12-13T06:31:17;98741.50;;;1.13;100.00
11349;BME280;5729;43.570;27.826;2022-12-13T06:33:43;98736.69;;;1.15;100.00
11349;BME280;5729;43.570;27.826;2022-12-13T06:36:09;98715.84;;;1.00;100.00
11349;BME280;5729;43.570;27.826;2022-12-13T06:38:34;98750.78;;;1.02;100.00
11349;BME280;5729;43.570;27.826;2022-12-13T06:41:15;98737.34;;;0.98;100.00
11349;BME280;5729;43.570;27.826;2022-12-13T06:43:42;98768.72;;;1.19;100.00
11349;BME280;5729;43.570;27.826;2022-12-13T06:46:08;98769.00;;;1.17;100.00
11349;BME280;5729;43.570;27.826;2022-12-13T06:48:34;98752.50;;;1.20;100.00
11349;BME280;5729;43.570;27.826;2022-12-13T06:51:01;98784.28;;;1.34;100.00
11349;BME280;5729;43.570;27.826;2022-12-13T06:53:27;98783.25;;;1.43;100.00
11349;BME280;5729;43.570;27.826;2022-12-13T06:55:52;98778.72;;;1.44;100.00
11349;BME280;5729;43.570;27.826;2022-12-13T06:58:18;98782.06;;;1.58;100.00
11349;BME280;5729;43.570;27.826;2022-12-13T07:00:43;98783.91;;;1.27;100.00
11349;BME280;5729;43.570;27.826;2022-12-13T07:03:10;98796.94;;;1.15;100.00
11349;BME280;5729;43.570;27.826;2022-12-13T07:05:39;98789.16;;;1.18;100.00
11349;BME280;5729;43.570;27.826;2022-12-13T07:08:04;98797.56;;;1.34;100.00
11349;BME280;5729;43.570;27.826;2022-12-13T07:10:31;98797.19;;;1.27;100.00
11349;BME280;5729;43.570;27.826;2022-12-13T07:12:56;98783.25;;;1.21;100.00
11349;BME280;5729;43.570;27.826;2022-12-13T07:15:22;98791.53;;;1.42;100.00
11349;BME280;5729;43.570;27.826;2022-12-13T07:17:48;98806.31;;;1.34;100.00
11349;BME280;5729;43.570;27.826;2022-12-13T07:20:15;98783.00;;;1.09;100.00
11349;BME280;5729;43.570;27.826;2022-12-13T07:22:41;98818.56;;;1.22;100.00
11349;BME280;5729;43.570;27.826;2022-12-13T07:25:07;98800.22;;;1.34;100.00
11349;BME280;5729;43.570;27.826;2022-12-13T07:27:33;98802.75;;;1.39;100.00
11349;BME280;5729;43.570;27.826;2022-12-13T07:29:59;98810.75;;;1.48;100.00
11349;BME280;5729;43.570;27.826;2022-12-13T07:32:24;98817.56;;;1.62;100.00
11349;BME280;5729;43.570;27.826;2022-12-13T07:34:50;98822.78;;;1.45;100.00
11349;BME280;5729;43.570;27.826;2022-12-13T07:37:15;98834.97;;;1.68;100.00
11349;BME280;5729;43.570;27.826;2022-12-13T07:39:41;98829.59;;;1.60;100.00
11349;BME280;5729;43.570;27.826;2022-12-13T07:42:06;98844.56;;;1.56;100.00
11349;BME280;5729;43.570;27.826;2022-12-13T07:44:32;98837.06;;;1.80;100.00
11349;BME280;5729;43.570;27.826;2022-12-13T07:46:57;98836.19;;;1.93;100.00
11349;BME280;5729;43.570;27.826;2022-12-13T07:49:22;98825.28;;;2.03;100.00
11349;BME280;5729;43.570;27.826;2022-12-13T07:51:48;98850.78;;;2.04;100.00
11349;BME280;5729;43.570;27.826;2022-12-13T07:54:13;98855.41;;;2.21;100.00
11349;BME280;5729;43.570;27.826;2022-12-13T07:56:39;98854.53;;;2.34;100.00
11349;BME280;5729;43.570;27.826;2022-12-13T07:59:04;98832.59;;;2.29;100.00
11349;BME280;5729;43.570;27.826;2022-12-13T08:01:31;98849.56;;;2.50;100.00
11349;BME280;5729;43.570;27.826;2022-12-13T08:03:59;98858.97;;;2.47;100.00
11349;BME280;5729;43.570;27.826;2022-12-13T08:06:24;98852.69;;;2.43;100.00
11349;BME280;5729;43.570;27.826;2022-12-13T08:08:54;98849.03;;;2.31;100.00
11349;BME280;5729;43.570;27.826;2022-12-13T08:11:19;98857.09;;;2.57;100.00
11349;BME280;5729;43.570;27.826;2022-12-13T08:13:45;98856.31;;;2.56;100.00
11349;BME280;5729;43.570;27.826;2022-12-13T08:16:12;98854.06;;;2.41;100.00
11349;BME280;5729;43.570;27.826;2022-12-13T08:18:42;98870.72;;;2.55;100.00
11349;BME280;5729;43.570;27.826;2022-12-13T08:21:09;98871.00;;;2.45;100.00
11349;BME280;5729;43.570;27.826;2022-12-13T08:23:35;98882.75;;;2.52;100.00
11349;BME280;5729;43.570;27.826;2022-12-13T08:26:02;98878.50;;;2.43;100.00
11349;BME280;5729;43.570;27.826;2022-12-13T08:28:29;98898.50;;;2.09;100.00
11349;BME280;5729;43.570;27.826;2022-12-13T08:31:00;98893.53;;;2.16;100.00
11349;BME280;5729;43.570;27.826;2022-12-13T08:33:26;98895.59;;;2.19;100.00
11349;BME280;5729;43.570;27.826;2022-12-13T08:35:51;98899.44;;;2.36;100.00
11349;BME280;5729;43.570;27.826;2022-12-13T08:38:17;98892.41;;;2.48;100.00
11349;BME280;5729;43.570;27.826;2022-12-13T08:40:42;98894.28;;;2.79;100.00
11349;BME280;5729;43.570;27.826;2022-12-13T08:43:08;98857.22;;;2.51;100.00
11349;BME280;5729;43.570;27.826;2022-12-13T08:45:33;98880.16;;;2.70;100.00
11349;BME280;5729;43.570;27.826;2022-12-13T08:48:00;98875.03;;;2.82;100.00
11349;BME280;5729;43.570;27.826;2022-12-13T08:50:26;98861.72;;;2.90;100.00
11349;BME280;5729;43.570;27.826;2022-12-13T08:52:52;98869.56;;;2.96;100.00
11349;BME280;5729;43.570;27.826;2022-12-13T08:55:18;98864.09;;;3.18;100.00
11349;BME280;5729;43.570;27.826;2022-12-13T08:57:44;98866.63;;;3.14;100.00
11349;BME280;5729;43.570;27.826;2022-12-13T09:00:16;98862.56;;;3.25;100.00
11349;BME280;5729;43.570;27.826;2022-12-13T09:02:42;98872.41;;;3.25;100.00
11349;BME280;5729;43.570;27.826;2022-12-13T09:05:08;98864.25;;;3.21;100.00
11349;BME280;5729;43.570;27.826;2022-12-13T09:07:35;98867.41;;;3.15;100.00
11349;BME280;5729;43.570;27.826;2022-12-13T09:10:04;98873.66;;;3.19;100.00
11349;BME280;5729;43.570;27.826;2022-12-13T09:12:29;98853.63;;;3.47;100.00
11349;BME280;5729;43.570;27.826;2022-12-13T09:14:55;98864.75;;;3.58;100.00
11349;BME280;5729;43.570;27.826;2022-12-13T09:17:20;98876.63;;;3.52;100.00
11349;BME280;5729;43.570;27.826;2022-12-13T09:19:46;98873.78;;;3.74;100.00
11349;BME280;5729;43.570;27.826;2022-12-13T09:22:11;98862.66;;;3.89;100.00
11349;BME280;5729;43.570;27.826;2022-12-13T09:24:37;98874.09;;;3.73;100.00
11349;BME280;5729;43.570;27.826;2022-12-13T09:27:05;98853.44;;;3.70;100.00
11349;BME280;5729;43.570;27.826;2022-12-13T09:29:32;98867.53;;;3.79;100.00
11349;BME280;5729;43.570;27.826;2022-12-13T09:31:59;98865.66;;;3.71;100.00
11349;BME280;5729;43.570;27.826;2022-12-13T09:34:24;98854.16;;;3.96;100.00
11349;BME280;5729;43.570;27.826;2022-12-13T09:36:49;98858.38;;;4.44;100.00
11349;BME280;5729;43.570;27.826;2022-12-13T09:39:15;98848.44;;;4.61;100.00
11349;BME280;5729;43.570;27.826;2022-12-13T09:41:47;98849.47;;;4.69;100.00
11349;BME280;5729;43.570;27.826;2022-12-13T09:44:31;98855.41;;;4.45;100.00
11349;BME280;5729;43.570;27.826;2022-12-13T09:47:00;98863.16;;;4.67;100.00
11349;BME280;5729;43.570;27.826;2022-12-13T09:49:41;98856.59;;;4.86;100.00
11349;BME280;5729;43.570;27.826;2022-12-13T09:52:13;98841.09;;;4.79;100.00
11349;BME280;5729;43.570;27.826;2022-12-13T09:54:39;98837.47;;;5.04;100.00
11349;BME280;5729;43.570;27.826;2022-12-13T09:57:16;98829.53;;;5.37;100.00
11349;BME280;5729;43.570;27.826;2022-12-13T09:59:42;98848.41;;;5.32;100.00
11349;BME280;5729;43.570;27.826;2022-12-13T10:02:18;98839.44;;;5.70;100.00
11349;BME280;5729;43.570;27.826;2022-12-13T10:04:45;98832.25;;;6.40;98.15
11349;BME280;5729;43.570;27.826;2022-12-13T10:07:16;98835.25;;;6.87;81.26
11349;BME280;5729;43.570;27.826;2022-12-13T10:09:43;98834.47;;;6.86;75.83
11349;BME280;5729;43.570;27.826;2022-12-13T10:12:12;98824.09;;;6.73;75.83
11349;BME280;5729;43.570;27.826;2022-12-13T10:14:43;98825.47;;;7.19;74.87
11349;BME280;5729;43.570;27.826;2022-12-13T10:17:14;98822.31;;;7.29;70.26
11349;BME280;5729;43.570;27.826;2022-12-13T10:19:44;98819.97;;;7.99;71.48
11349;BME280;5729;43.570;27.826;2022-12-13T10:22:13;98819.88;;;8.27;63.21
11349;BME280;5729;43.570;27.826;2022-12-13T10:25:03;98818.16;;;8.66;60.83
11349;BME280;5729;43.570;27.826;2022-12-13T10:27:34;98816.22;;;9.78;55.56
11349;BME280;5729;43.570;27.826;2022-12-13T10:33:02;98822.16;;;10.10;48.76
11349;BME280;5729;43.570;27.826;2022-12-13T10:35:33;98816.94;;;8.98;50.07
11349;BME280;5729;43.570;27.826;2022-12-13T10:38:01;98814.53;;;9.93;50.19
11349;BME280;5729;43.570;27.826;2022-12-13T10:40:31;98814.25;;;9.98;48.48
11349;BME280;5729;43.570;27.826;2022-12-13T10:43:10;98819.88;;;9.48;49.86
11349;BME280;5729;43.570;27.826;2022-12-13T10:45:36;98824.19;;;9.14;50.05
11349;BME280;5729;43.570;27.826;2022-12-13T10:48:02;98809.25;;;9.16;49.07
11349;BME280;5729;43.570;27.826;2022-12-13T10:50:29;98811.81;;;9.48;48.73
11349;BME280;5729;43.570;27.826;2022-12-13T10:52:57;98818.69;;;9.87;48.22
11349;BME280;5729;43.570;27.826;2022-12-13T10:55:35;98818.00;;;9.71;47.63
11349;BME280;5729;43.570;27.826;2022-12-13T10:58:06;98820.47;;;10.22;46.94
11349;BME280;5729;43.570;27.826;2022-12-13T11:03:02;98809.06;;;10.09;47.91
11349;BME280;5729;43.570;27.826;2022-12-13T11:05:33;98827.84;;;10.51;47.33
11349;BME280;5729;43.570;27.826;2022-12-13T11:08:23;98825.59;;;10.30;48.68
11349;BME280;5729;43.570;27.826;2022-12-13T11:11:05;98810.25;;;9.89;46.82
11349;BME280;5729;43.570;27.826;2022-12-13T11:16:29;98814.06;;;9.45;50.20
11349;BME280;5729;43.570;27.826;2022-12-13T11:19:03;98814.06;;;9.26;50.43
11349;BME280;5729;43.570;27.826;2022-12-13T11:21:33;98815.59;;;8.73;50.42
11349;BME280;5729;43.570;27.826;2022-12-13T11:24:04;98816.91;;;7.85;54.00
11349;BME280;5729;43.570;27.826;2022-12-13T11:26:32;98818.00;;;7.40;59.43
11349;BME280;5729;43.570;27.826;2022-12-13T11:37:31;98816.78;;;5.55;86.04
11349;BME280;5729;43.570;27.826;2022-12-13T11:40:10;98821.03;;;5.35;86.13
11349;BME280;5729;43.570;27.826;2022-12-13T11:42:55;98822.69;;;5.28;89.70
11349;BME280;5729;43.570;27.826;2022-12-13T11:45:42;98824.50;;;4.94;92.99
11349;BME280;5729;43.570;27.826;2022-12-13T11:50:50;98824.44;;;4.82;100.00
11349;BME280;5729;43.570;27.826;2022-12-13T11:55:54;98814.13;;;4.43;100.00
11349;BME280;5729;43.570;27.826;2022-12-13T11:58:42;98817.41;;;4.48;100.00
11349;BME280;5729;43.570;27.826;2022-12-13T12:01:21;98801.41;;;4.10;100.00
11349;BME280;5729;43.570;27.826;2022-12-13T12:06:42;98812.63;;;3.86;100.00
11349;BME280;5729;43.570;27.826;2022-12-13T12:09:14;98815.38;;;3.60;100.00
11349;BME280;5729;43.570;27.826;2022-12-13T12:11:52;98813.31;;;3.57;100.00
11349;BME280;5729;43.570;27.826;2022-12-13T12:14:27;98806.84;;;3.76;100.00
11349;BME280;5729;43.570;27.826;2022-12-13T12:16:58;98804.53;;;3.65;100.00
11349;BME280;5729;43.570;27.826;2022-12-13T12:19:26;98804.66;;;3.78;100.00
11349;BME280;5729;43.570;27.826;2022-12-13T12:22:06;98808.19;;;3.99;100.00
11349;BME280;5729;43.570;27.826;2022-12-13T12:30:09;98819.19;;;3.97;100.00
11349;BME280;5729;43.570;27.826;2022-12-13T12:43:38;98834.97;;;4.11;100.00
11349;BME280;5729;43.570;27.826;2022-12-13T12:46:30;98850.22;;;4.02;100.00
11349;BME280;5729;43.570;27.826;2022-12-13T12:52:08;98849.59;;;3.96;100.00
11349;BME280;5729;43.570;27.826;2022-12-13T13:00:22;98849.19;;;3.77;100.00
11349;BME280;5729;43.570;27.826;2022-12-13T13:05:28;98845.25;;;3.92;100.00
11349;BME280;5729;43.570;27.826;2022-12-13T13:08:12;98841.47;;;3.84;100.00
11349;BME280;5729;43.570;27.826;2022-12-13T13:10:40;98826.25;;;3.85;100.00
11349;BME280;5729;43.570;27.826;2022-12-13T13:15:57;98841.03;;;3.74;100.00
11349;BME280;5729;43.570;27.826;2022-12-13T13:18:42;98833.53;;;3.58;100.00
11349;BME280;5729;43.570;27.826;2022-12-13T13:21:30;98836.81;;;3.64;100.00
11349;BME280;5729;43.570;27.826;2022-12-13T13:26:42;98848.59;;;3.72;100.00
11349;BME280;5729;43.570;27.826;2022-12-13T13:34:35;98849.53;;;3.58;100.00
11349;BME280;5729;43.570;27.826;2022-12-13T13:37:02;98844.69;;;3.35;100.00
11349;BME280;5729;43.570;27.826;2022-12-13T13:41:55;98849.06;;;3.22;100.00
11349;BME280;5729;43.570;27.826;2022-12-13T13:53:03;98868.63;;;2.91;100.00
11349;BME280;5729;43.570;27.826;2022-12-13T13:56:19;98863.91;;;2.88;100.00
11349;BME280;5729;43.570;27.826;2022-12-13T14:10:40;98908.94;;;2.59;100.00
11349;BME280;5729;43.570;27.826;2022-12-13T14:30:21;98949.63;;;2.37;100.00
11349;BME280;5729;43.570;27.826;2022-12-13T14:32:48;98952.56;;;2.27;100.00
11349;BME280;5729;43.570;27.826;2022-12-13T14:35:26;98952.16;;;2.11;100.00
11349;BME280;5729;43.570;27.826;2022-12-13T14:38:22;98952.50;;;2.18;100.00
11349;BME280;5729;43.570;27.826;2022-12-13T14:40:50;98960.84;;;2.03;100.00
11349;BME280;5729;43.570;27.826;2022-12-13T14:43:29;98954.81;;;2.11;100.00
11349;BME280;5729;43.570;27.826;2022-12-13T14:46:01;98965.75;;;2.10;100.00
11349;BME280;5729;43.570;27.826;2022-12-13T14:48:47;98970.59;;;2.08;100.00
11349;BME280;5729;43.570;27.826;2022-12-13T14:51:34;98950.69;;;2.05;100.00
11349;BME280;5729;43.570;27.826;2022-12-13T14:54:02;98972.22;;;2.17;100.00
11349;BME280;5729;43.570;27.826;2022-12-13T14:56:29;98967.56;;;2.23;100.00
11349;BME280;5729;43.570;27.826;2022-12-13T14:59:00;98978.00;;;1.97;100.00
11349;BME280;5729;43.570;27.826;2022-12-13T15:01:29;98990.41;;;2.02;100.00
11349;BME280;5729;43.570;27.826;2022-12-13T15:04:22;98989.72;;;1.96;100.00
11349;BME280;5729;43.570;27.826;2022-12-13T15:06:56;98999.09;;;1.94;100.00
11349;BME280;5729;43.570;27.826;2022-12-13T15:09:23;98997.84;;;1.91;100.00
11349;BME280;5729;43.570;27.826;2022-12-13T15:11:49;99000.09;;;1.84;100.00
11349;BME280;5729;43.570;27.826;2022-12-13T15:14:21;99006.66;;;2.00;100.00